Archival Weather

Chicago O'Hare International

Chicago, Illinois (KORD)

Report from: Thursday, November 24, 2022 3:51 PM CST
Current time: Sunday, December 4, 2022 6:14 AM CST

Current weather
Weather history
Weather forecast

Temperature10.6°C (51.1°F)
Dew point5.0°C (41.0°F)
Winds 9 kts (4.6 m/s, 10.4 mph) Southwest (230°)
Visibility10 mi. (16.1 km)
Clouds Ceiling: Overcast 2,700 ft. (823 m)
Altimeter30.03 in.Hg (1017 mB)
Relative humidity68 %
Density altitude-522 ft. (-159 m)
Sea-level pressure101.7 kPa (1017 mB, 30.04 in.Hg)
Remarks System requires maintenance
Automated weather observing station with precipitation discriminator
Flight conditions Marginal Visual Meteorological Conditions
Raw dataKORD 242151Z 23009KT 10SM OVC027 11/05 A3003 RMK AO2 SLP173 T01060050 $
An error has occurred. This application may no longer respond until reloaded. Reload 🗙